Time;durP1;ratioP1;P1;durP2;ratioP2;P2;SDS_P1;SDS_P2;PMS_P1;PMS_P2;Temp;Humidity;BMP_temperature;BMP_pressure;BME280_temperature;BME280_humidity;BME280_pressure;Samples;Min_cycle;Max_cycle;Signal;HPM_P1;HPM_P2
2022/05/23 00:00:55;;;;;;;6.15;3.22;;;14.30;99.90;;;;;;5103374;28;20047;-45
2022/05/23 00:03:21;;;;;;;6.15;2.75;;;14.20;99.90;;;;;;5104660;27;20051;-53
2022/05/23 00:05:47;;;;;;;4.88;2.63;;;14.20;99.90;;;;;;5103346;28;20075;-53
2022/05/23 00:08:15;;;;;;;5.45;2.97;;;14.20;99.90;;;;;;5093410;28;20051;-51
2022/05/23 00:10:41;;;;;;;6.45;3.10;;;14.10;99.90;;;;;;5100255;27;20092;-51
2022/05/23 00:13:07;;;;;;;7.20;3.30;;;14.00;99.90;;;;;;5104709;28;20047;-54
2022/05/23 00:15:33;;;;;;;6.53;3.08;;;14.00;99.90;;;;;;5098926;27;20212;-49
2022/05/23 00:17:59;;;;;;;7.68;3.80;;;14.00;99.90;;;;;;5081565;28;20527;-51
2022/05/23 00:20:26;;;;;;;7.53;3.38;;;14.00;99.90;;;;;;5104341;28;20051;-50
2022/05/23 00:22:52;;;;;;;9.25;3.15;;;14.00;99.90;;;;;;5104612;27;20122;-53
2022/05/23 00:25:18;;;;;;;6.75;3.22;;;13.90;99.90;;;;;;5093273;28;20050;-50
2022/05/23 00:27:46;;;;;;;10.18;4.18;;;13.90;99.90;;;;;;5103547;28;20070;-53
2022/05/23 00:30:21;;;;;;;7.53;3.65;;;13.80;99.90;;;;;;5105562;27;20048;-54
2022/05/23 00:35:32;;;;;;;7.68;3.10;;;13.80;99.90;;;;;;5092841;28;20422;-51
2022/05/23 00:37:58;;;;;;;5.93;3.13;;;13.80;99.90;;;;;;5101520;28;20096;-47
2022/05/23 00:40:29;;;;;;;6.03;3.17;;;13.80;99.90;;;;;;5103401;28;20311;-50
2022/05/23 00:43:15;;;;;;;7.30;3.60;;;13.70;99.90;;;;;;5107313;27;20047;-53
2022/05/23 00:45:42;;;;;;;5.60;3.08;;;13.70;99.90;;;;;;5104314;27;20498;-50
2022/05/23 00:48:09;;;;;;;6.38;3.28;;;13.70;99.90;;;;;;5106962;27;20116;-46
2022/05/23 00:50:37;;;;;;;9.02;3.50;;;13.70;99.90;;;;;;5101933;28;20055;-52
2022/05/23 00:53:04;;;;;;;4.78;2.95;;;13.70;99.90;;;;;;5099888;28;20048;-56
2022/05/23 00:55:35;;;;;;;8.55;3.67;;;13.70;99.90;;;;;;5103014;28;20047;-51
2022/05/23 00:58:22;;;;;;;5.55;2.90;;;13.70;99.90;;;;;;5102789;27;20051;-55
2022/05/23 01:00:49;;;;;;;7.68;2.97;;;13.80;99.90;;;;;;5083215;28;20094;-54
2022/05/23 01:03:17;;;;;;;6.40;3.25;;;13.80;99.90;;;;;;5102908;28;20079;-51
2022/05/23 01:05:43;;;;;;;6.82;3.10;;;13.80;99.90;;;;;;5102022;28;20059;-52
2022/05/23 01:08:09;;;;;;;7.57;2.42;;;13.80;99.90;;;;;;5101155;28;20051;-51
2022/05/23 01:10:37;;;;;;;5.63;2.80;;;13.80;99.90;;;;;;5107652;27;20092;-52
2022/05/23 01:13:03;;;;;;;5.10;3.05;;;13.90;99.90;;;;;;5103570;28;20063;-54
2022/05/23 01:15:31;;;;;;;3.97;2.97;;;13.90;99.90;;;;;;5102575;28;20051;-54
2022/05/23 01:17:57;;;;;;;6.30;3.55;;;13.90;99.90;;;;;;5101001;28;20054;-56
2022/05/23 01:20:23;;;;;;;6.88;2.97;;;13.90;99.90;;;;;;5102704;28;20776;-51
2022/05/23 01:23:14;;;;;;;8.15;3.22;;;13.90;99.90;;;;;;5102996;28;20036;-55
2022/05/23 01:25:43;;;;;;;8.10;2.92;;;13.90;99.90;;;;;;5097226;28;20402;-51
2022/05/23 01:28:09;;;;;;;5.57;2.35;;;13.90;99.90;;;;;;5102310;28;20047;-46
2022/05/23 01:30:35;;;;;;;7.80;2.78;;;13.90;99.90;;;;;;5101690;28;20047;-54
2022/05/23 01:33:01;;;;;;;9.75;3.03;;;13.90;99.90;;;;;;5102054;28;20502;-52
2022/05/23 01:35:28;;;;;;;4.88;2.53;;;13.90;99.90;;;;;;5101352;28;20456;-55
2022/05/23 01:37:54;;;;;;;5.65;3.28;;;13.90;99.90;;;;;;5099984;28;20060;-54
2022/05/23 01:40:20;;;;;;;3.80;2.80;;;14.00;99.90;;;;;;5100312;28;20052;-50
2022/05/23 01:42:46;;;;;;;8.43;3.72;;;14.00;99.90;;;;;;5102730;27;20062;-53
2022/05/23 01:45:15;;;;;;;4.18;2.78;;;13.90;99.90;;;;;;5107852;27;20043;-49
2022/05/23 01:47:41;;;;;;;7.38;3.00;;;14.00;99.90;;;;;;5099808;28;20059;-56
2022/05/23 01:50:07;;;;;;;5.53;2.72;;;14.00;99.90;;;;;;5102060;28;20043;-50
2022/05/23 01:52:33;;;;;;;6.82;3.05;;;14.00;99.90;;;;;;5102110;28;20517;-51
2022/05/23 01:54:59;;;;;;;8.07;2.92;;;14.00;99.90;;;;;;5098651;28;20055;-47
2022/05/23 01:57:26;;;;;;;5.53;2.80;;;14.00;99.90;;;;;;5102667;28;20496;-51
2022/05/23 02:02:36;;;;;;;5.65;2.80;;;13.90;99.90;;;;;;5102184;28;20124;-54
2022/05/23 02:05:03;;;;;;;4.15;2.30;;;13.90;99.90;;;;;;5101228;28;20482;-52
2022/05/23 02:07:29;;;;;;;5.63;2.80;;;13.90;99.90;;;;;;5090796;28;20108;-45
2022/05/23 02:09:55;;;;;;;5.78;2.50;;;13.90;99.90;;;;;;5102584;28;20047;-51
2022/05/23 02:12:21;;;;;;;8.80;3.50;;;13.90;99.90;;;;;;5100217;28;20444;-54
2022/05/23 02:14:49;;;;;;;5.38;3.00;;;13.90;99.90;;;;;;5100952;28;20440;-54
2022/05/23 02:17:15;;;;;;;6.28;2.55;;;13.80;99.90;;;;;;5102229;28;20046;-50
2022/05/23 02:19:42;;;;;;;4.28;2.53;;;13.80;99.90;;;;;;5084255;28;20043;-51
2022/05/23 02:22:07;;;;;;;6.63;2.70;;;13.80;99.90;;;;;;5103555;28;20075;-54
2022/05/23 02:24:34;;;;;;;5.90;3.00;;;13.80;99.90;;;;;;5101760;28;20421;-54
2022/05/23 02:27:00;;;;;;;6.65;2.60;;;13.70;99.90;;;;;;5100636;28;20052;-50
2022/05/23 02:29:26;;;;;;;7.55;2.97;;;13.70;99.90;;;;;;5099232;28;20044;-51
2022/05/23 02:31:53;;;;;;;5.22;3.20;;;13.60;99.90;;;;;;5099717;28;20050;-54
2022/05/23 02:34:19;;;;;;;5.18;2.80;;;13.60;99.90;;;;;;5100013;28;20074;-50
2022/05/23 02:36:46;;;;;;;4.70;2.60;;;13.50;99.90;;;;;;5101291;28;20507;-54
2022/05/23 02:39:13;;;;;;;4.90;2.85;;;13.50;99.90;;;;;;5082365;28;20056;-51
2022/05/23 02:41:39;;;;;;;5.85;3.20;;;13.40;99.90;;;;;;5103617;28;20409;-50
2022/05/23 02:44:05;;;;;;;5.57;2.72;;;13.40;99.90;;;;;;5112195;27;20048;-53
2022/05/23 02:46:31;;;;;;;5.88;3.92;;;13.30;99.90;;;;;;5097802;28;20117;-55
2022/05/23 02:48:57;;;;;;;8.85;3.38;;;13.30;99.90;;;;;;5104951;28;20047;-53
2022/05/23 02:51:23;;;;;;;5.57;3.05;;;13.20;99.90;;;;;;5112610;27;20051;-52
2022/05/23 02:53:49;;;;;;;4.88;2.80;;;13.20;99.90;;;;;;5103305;27;20414;-52
2022/05/23 02:56:16;;;;;;;6.82;2.97;;;13.10;99.90;;;;;;5087176;28;20062;-55
2022/05/23 02:58:42;;;;;;;4.10;3.00;;;13.10;99.90;;;;;;5102779;28;20059;-50
2022/05/23 03:01:09;;;;;;;4.72;3.35;;;13.10;99.90;;;;;;5106048;28;20267;-49
2022/05/23 03:03:34;;;;;;;5.30;3.30;;;13.10;99.90;;;;;;5101918;28;20043;-56
2022/05/23 03:06:00;;;;;;;6.35;3.53;;;13.00;99.90;;;;;;5103544;28;20059;-51
2022/05/23 03:08:28;;;;;;;4.50;2.95;;;13.00;99.90;;;;;;5090441;28;20051;-52
2022/05/23 03:10:58;;;;;;;6.72;3.08;;;13.00;99.90;;;;;;5108942;27;20058;-54
2022/05/23 03:13:24;;;;;;;10.20;3.25;;;12.90;99.90;;;;;;5104888;28;20039;-49
2022/05/23 03:15:50;;;;;;;5.30;2.90;;;12.90;99.90;;;;;;5103296;28;20151;-52
2022/05/23 03:18:16;;;;;;;6.18;3.13;;;12.90;99.90;;;;;;5103188;28;20111;-55
2022/05/23 03:20:42;;;;;;;7.85;3.53;;;12.90;99.90;;;;;;5105430;28;20039;-52
2022/05/23 03:28:40;;;;;;;6.03;2.92;;;12.90;99.90;;;;;;5093086;28;20105;-51
2022/05/23 03:31:06;;;;;;;6.95;3.22;;;12.90;99.90;;;;;;5104250;28;20562;-52
2022/05/23 03:33:32;;;;;;;7.53;3.00;;;12.90;99.90;;;;;;5105365;28;20070;-52
2022/05/23 03:35:58;;;;;;;6.25;3.40;;;12.90;99.90;;;;;;5086055;28;20063;-45
2022/05/23 03:38:24;;;;;;;5.30;3.13;;;12.90;99.90;;;;;;5105796;28;20055;-49
2022/05/23 03:40:50;;;;;;;5.57;2.70;;;12.90;99.90;;;;;;5104307;28;20062;-51
2022/05/23 03:43:16;;;;;;;6.60;2.97;;;12.90;99.90;;;;;;5110523;27;20064;-51
2022/05/23 03:45:42;;;;;;;6.18;3.10;;;12.90;99.90;;;;;;5105356;27;20054;-52
2022/05/23 03:48:08;;;;;;;5.60;3.00;;;12.90;99.90;;;;;;5103626;28;20509;-52
2022/05/23 03:50:36;;;;;;;5.15;3.03;;;12.90;99.90;;;;;;5104942;27;20047;-51
2022/05/23 03:53:03;;;;;;;8.13;3.10;;;12.90;99.90;;;;;;5096991;28;20571;-56
2022/05/23 03:55:29;;;;;;;8.27;3.13;;;12.90;99.90;;;;;;5102345;28;20047;-51
2022/05/23 03:57:56;;;;;;;4.43;2.85;;;12.90;99.90;;;;;;5102924;28;20044;-49
2022/05/23 04:00:22;;;;;;;6.45;3.22;;;12.80;99.90;;;;;;5102666;28;20047;-53
2022/05/23 04:02:48;;;;;;;4.70;3.47;;;12.90;99.90;;;;;;5104918;28;20459;-51
2022/05/23 04:05:15;;;;;;;5.28;2.88;;;12.90;99.90;;;;;;5100790;28;20167;-54
2022/05/23 04:07:41;;;;;;;6.80;3.50;;;12.90;99.90;;;;;;5100386;27;20043;-56
2022/05/23 04:10:18;;;;;;;5.25;3.13;;;13.00;99.90;;;;;;5107378;27;20043;-54
2022/05/23 04:12:45;;;;;;;6.07;3.42;;;13.00;99.90;;;;;;5102228;28;20469;-54
2022/05/23 04:15:11;;;;;;;4.90;3.33;;;13.10;99.90;;;;;;5102244;28;20130;-52
2022/05/23 04:17:37;;;;;;;6.30;3.65;;;13.20;99.90;;;;;;5103262;28;20443;-56
2022/05/23 04:20:04;;;;;;;6.18;3.15;;;13.50;99.90;;;;;;5102833;28;20134;-54
2022/05/23 04:22:30;;;;;;;6.75;3.10;;;13.80;99.90;;;;;;5104428;28;20118;-53
2022/05/23 04:24:56;;;;;;;3.53;2.95;;;14.00;99.90;;;;;;5101330;27;20051;-53
2022/05/23 04:27:22;;;;;;;3.63;2.58;;;14.20;99.90;;;;;;5102400;28;20044;-54
2022/05/23 04:29:47;;;;;;;4.18;3.13;;;14.70;99.90;;;;;;5080257;28;20055;-55
2022/05/23 04:35:13;;;;;;;5.35;3.20;;;15.90;99.90;;;;;;5102872;28;20620;-50
2022/05/23 04:37:44;;;;;;;5.22;2.70;;;16.80;99.90;;;;;;5102621;28;20058;-51
2022/05/23 04:40:16;;;;;;;6.40;3.22;;;17.50;99.90;;;;;;5103283;28;20701;-53
2022/05/23 04:42:42;;;;;;;5.07;2.95;;;17.70;99.90;;;;;;5106085;27;20093;-54
2022/05/23 04:45:09;;;;;;;4.90;2.63;;;17.50;99.90;;;;;;5108572;27;20155;-49
2022/05/23 04:50:20;;;;;;;6.53;3.17;;;17.40;99.90;;;;;;5105368;28;20128;-51
2022/05/23 04:52:47;;;;;;;5.47;2.47;;;17.20;99.90;;;;;;5104030;28;20055;-47
2022/05/23 04:55:14;;;;;;;5.35;3.35;;;17.30;99.90;;;;;;5101865;28;20085;-49
2022/05/23 04:57:40;;;;;;;7.93;2.90;;;17.50;99.90;;;;;;5093575;28;20135;-51
2022/05/23 05:00:09;;;;;;;4.22;2.75;;;18.10;99.90;;;;;;5102812;28;20044;-54
2022/05/23 05:02:36;;;;;;;7.75;3.20;;;18.70;99.90;;;;;;5101115;28;20843;-53
2022/05/23 05:05:02;;;;;;;6.43;2.85;;;18.90;99.90;;;;;;5084164;28;20466;-51
2022/05/23 05:07:28;;;;;;;5.10;2.75;;;18.80;99.90;;;;;;5068953;28;20095;-49
2022/05/23 05:09:54;;;;;;;4.78;2.63;;;18.50;99.90;;;;;;5079552;28;20150;-53
2022/05/23 05:12:20;;;;;;;5.47;3.10;;;18.20;99.90;;;;;;5081136;28;20418;-53
2022/05/23 05:14:45;;;;;;;5.50;2.88;;;18.30;99.90;;;;;;5080603;28;20055;-52
2022/05/23 05:17:11;;;;;;;5.35;3.10;;;18.80;99.90;;;;;;5082569;28;20071;-53
2022/05/23 05:19:37;;;;;;;7.22;3.95;;;19.50;99.90;;;;;;5082531;28;20048;-55
2022/05/23 05:22:03;;;;;;;4.85;3.10;;;20.20;99.90;;;;;;5082120;28;20418;-52
2022/05/23 05:24:32;;;;;;;6.70;2.75;;;20.60;99.90;;;;;;5078762;28;20044;-56
2022/05/23 05:27:02;;;;;;;7.40;3.40;;;20.60;99.90;;;;;;5082197;28;20040;-51
2022/05/23 05:29:28;;;;;;;5.93;3.22;;;21.30;99.80;;;;;;5082187;28;20055;-54
2022/05/23 05:32:01;;;;;;;4.63;2.85;;;21.80;99.00;;;;;;5079511;28;20036;-53
2022/05/23 05:34:32;;;;;;;4.13;2.80;;;22.40;97.80;;;;;;5079516;28;20491;-54
2022/05/23 05:37:04;;;;;;;4.93;2.95;;;23.40;97.30;;;;;;5082943;28;20408;-52
2022/05/23 05:39:32;;;;;;;4.78;3.00;;;24.10;96.50;;;;;;5081884;28;20504;-53
2022/05/23 05:42:05;;;;;;;5.68;3.30;;;24.50;95.70;;;;;;5080290;28;20447;-48
2022/05/23 05:44:34;;;;;;;6.15;2.72;;;24.90;94.50;;;;;;5079836;28;20048;-51
2022/05/23 05:47:10;;;;;;;5.75;3.50;;;25.30;94.50;;;;;;5082577;28;20402;-53
2022/05/23 05:49:39;;;;;;;7.13;3.22;;;25.70;93.60;;;;;;5073193;28;20048;-55
2022/05/23 05:52:06;;;;;;;6.80;3.25;;;25.70;93.30;;;;;;5082643;28;20056;-52
2022/05/23 05:54:32;;;;;;;5.35;3.20;;;25.40;92.80;;;;;;5080885;28;20110;-56
2022/05/23 05:57:01;;;;;;;3.53;2.50;;;25.60;92.90;;;;;;5082686;28;20101;-49
2022/05/23 05:59:27;;;;;;;4.82;2.85;;;26.20;92.70;;;;;;5081346;28;20589;-53
2022/05/23 06:01:53;;;;;;;4.75;2.97;;;26.80;92.30;;;;;;5082782;28;20529;-51
2022/05/23 06:04:19;;;;;;;4.20;3.30;;;27.30;91.40;;;;;;5084078;28;20147;-53
2022/05/23 06:12:13;;;;;;;6.00;3.15;;;27.90;89.50;;;;;;5081507;28;20048;-53
2022/05/23 06:14:40;;;;;;;5.03;3.00;;;27.80;88.20;;;;;;5080788;28;20068;-54
2022/05/23 06:17:11;;;;;;;5.82;3.40;;;27.80;87.80;;;;;;5063507;28;20056;-54
2022/05/23 06:19:43;;;;;;;6.53;3.33;;;27.20;88.80;;;;;;5079943;28;20569;-53
2022/05/23 06:22:09;;;;;;;;;;;26.30;88.50;;;;;;5081058;28;20055;-51
2022/05/23 06:24:35;;;;;;;5.72;3.30;;;25.20;88.90;;;;;;5079382;28;19928;-53
2022/05/23 06:27:07;;;;;;;5.82;3.60;;;24.10;90.80;;;;;;5081568;28;20044;-51
2022/05/23 06:29:34;;;;;;;7.60;3.83;;;23.10;91.50;;;;;;5079458;28;20298;-52
2022/05/23 06:32:01;;;;;;;6.78;3.13;;;22.40;92.30;;;;;;5082744;28;20048;-54
2022/05/23 06:34:28;;;;;;;5.10;3.35;;;21.90;94.00;;;;;;5078089;28;20491;-52
2022/05/23 06:36:55;;;;;;;6.13;3.55;;;21.70;94.00;;;;;;5079022;28;20502;-52
2022/05/23 06:39:21;;;;;;;6.85;4.68;;;21.50;94.40;;;;;;5079723;28;20052;-54
2022/05/23 06:41:47;;;;;;;7.75;4.20;;;21.00;94.90;;;;;;5081343;28;20517;-52
2022/05/23 06:44:13;;;;;;;4.55;3.63;;;20.70;95.40;;;;;;5078931;28;20150;-44
2022/05/23 06:46:39;;;;;;;5.65;3.58;;;20.50;96.00;;;;;;5081301;28;20635;-49
2022/05/23 06:49:06;;;;;;;6.05;3.63;;;20.40;96.30;;;;;;5081874;28;20051;-54
2022/05/23 06:51:35;;;;;;;7.55;3.90;;;20.30;96.70;;;;;;5079547;28;20044;-51
2022/05/23 06:54:01;;;;;;;9.82;4.60;;;20.20;97.50;;;;;;5079172;28;20093;-50
2022/05/23 06:56:30;;;;;;;8.75;4.28;;;20.30;97.80;;;;;;5060902;28;20130;-54
2022/05/23 06:58:56;;;;;;;6.53;3.75;;;20.20;97.90;;;;;;5080438;28;20040;-55
2022/05/23 07:01:22;;;;;;;6.78;4.07;;;20.50;98.00;;;;;;5080738;28;20181;-49
2022/05/23 07:03:47;;;;;;;6.43;4.18;;;20.70;98.10;;;;;;5081793;28;20051;-52
2022/05/23 07:14:27;;;;;;;7.38;4.20;;;22.30;97.40;;;;;;5077695;28;20044;-52
2022/05/23 07:16:54;;;;;;;8.68;4.60;;;22.80;96.40;;;;;;5079599;28;20048;-54
2022/05/23 07:19:21;;;;;;;10.75;4.60;;;22.80;96.20;;;;;;5080334;28;20070;-52
2022/05/23 07:21:47;;;;;;;6.32;4.00;;;22.80;96.90;;;;;;5081382;28;20051;-49
2022/05/23 07:24:13;;;;;;;6.97;3.72;;;22.60;96.60;;;;;;5082199;28;20600;-51
2022/05/23 07:26:39;;;;;;;7.45;4.57;;;22.70;96.60;;;;;;5081566;28;20127;-54
2022/05/23 07:29:05;;;;;;;6.80;4.55;;;22.50;96.30;;;;;;5077495;28;20147;-55
2022/05/23 07:31:31;;;;;;;6.30;4.28;;;22.50;96.10;;;;;;5083314;28;20525;-53
2022/05/23 07:33:56;;;;;;;6.35;4.80;;;22.20;96.60;;;;;;5082325;28;20060;-55
2022/05/23 07:36:22;;;;;;;5.80;4.63;;;22.10;96.80;;;;;;5075781;28;20052;-51
2022/05/23 07:38:48;;;;;;;5.95;5.05;;;22.00;97.30;;;;;;5087140;28;20043;-53
2022/05/23 07:41:14;;;;;;;8.13;5.53;;;21.80;97.60;;;;;;5084215;28;20105;-53
2022/05/23 07:43:41;;;;;;;8.02;5.18;;;21.70;98.40;;;;;;5083112;28;20098;-54
2022/05/23 07:46:13;;;;;;;8.60;4.88;;;21.70;98.30;;;;;;5084406;28;20052;-54
2022/05/23 07:48:41;;;;;;;7.65;4.97;;;21.80;97.70;;;;;;5083201;28;20075;-54
2022/05/23 07:51:12;;;;;;;8.10;5.15;;;21.80;97.80;;;;;;5082237;28;20063;-53
2022/05/23 08:01:53;;;;;;;6.22;4.85;;;22.80;97.50;;;;;;5080915;28;20131;-54
2022/05/23 08:04:20;;;;;;;10.77;6.15;;;22.90;97.10;;;;;;5081468;28;20060;-52
2022/05/23 08:06:47;;;;;;;8.60;5.00;;;22.70;97.20;;;;;;5079162;28;20510;-52
2022/05/23 08:09:13;;;;;;;9.10;5.63;;;22.50;97.40;;;;;;5075775;28;20541;-48
2022/05/23 08:11:42;;;;;;;10.02;5.13;;;22.50;98.10;;;;;;5083398;28;20131;-53
2022/05/23 08:14:08;;;;;;;5.43;4.68;;;22.60;98.30;;;;;;5083329;28;20052;-48
2022/05/23 08:16:35;;;;;;;7.32;5.10;;;22.50;97.60;;;;;;5081677;28;20070;-54
2022/05/23 08:19:06;;;;;;;7.95;5.18;;;22.30;98.00;;;;;;5083405;28;20074;-56
2022/05/23 08:21:33;;;;;;;7.95;5.35;;;22.40;98.20;;;;;;5072582;28;20047;-52
2022/05/23 08:24:00;;;;;;;7.28;4.97;;;22.70;98.20;;;;;;5083578;28;20055;-54
2022/05/23 08:26:27;;;;;;;9.52;5.40;;;23.00;97.80;;;;;;5081152;28;20096;-54
2022/05/23 08:28:53;;;;;;;7.32;5.13;;;23.20;97.90;;;;;;5083671;28;20063;-46
2022/05/23 08:31:19;;;;;;;5.75;5.00;;;23.50;97.90;;;;;;5082820;28;20454;-53
2022/05/23 08:33:45;;;;;;;8.65;5.13;;;23.60;97.30;;;;;;5083204;28;20060;-53
2022/05/23 08:36:11;;;;;;;5.88;5.13;;;23.80;97.60;;;;;;5081789;28;20047;-55
2022/05/23 08:38:37;;;;;;;8.50;5.00;;;23.90;96.90;;;;;;5082045;28;20123;-54
2022/05/23 08:41:05;;;;;;;7.82;6.18;;;24.00;97.00;;;;;;5082266;28;20055;-50
2022/05/23 08:43:49;;;;;;;7.38;5.20;;;23.90;97.60;;;;;;5084069;28;20499;-52
2022/05/23 08:46:44;;;;;;;8.63;6.30;;;24.10;97.20;;;;;;5087033;28;20552;-54
2022/05/23 08:49:35;;;;;;;9.80;6.00;;;24.40;98.10;;;;;;4993084;28;20054;-55
2022/05/23 08:52:01;;;;;;;8.60;5.30;;;24.40;96.10;;;;;;5010301;28;20293;-55
2022/05/23 08:54:49;;;;;;;10.48;6.13;;;24.60;97.20;;;;;;5010985;28;20068;-51
2022/05/23 08:57:29;;;;;;;8.52;5.05;;;24.70;97.70;;;;;;4998754;28;20564;-51
2022/05/23 09:00:00;;;;;;;8.90;5.55;;;24.80;96.80;;;;;;5008668;28;20057;-52
2022/05/23 09:02:52;;;;;;;6.88;5.18;;;25.00;97.00;;;;;;4997487;28;20579;-53
2022/05/23 09:05:22;;;;;;;10.65;6.07;;;25.00;95.90;;;;;;5004117;28;20566;-51
2022/05/23 09:07:54;;;;;;;8.85;4.97;;;25.00;96.70;;;;;;5014885;28;20100;-56
2022/05/23 09:10:32;;;;;;;9.95;6.65;;;25.00;97.20;;;;;;5014093;28;20037;-56
2022/05/23 09:12:58;;;;;;;11.15;5.78;;;25.00;96.90;;;;;;5013458;28;20064;-51
2022/05/23 09:15:24;;;;;;;9.10;6.30;;;24.90;96.70;;;;;;5001405;28;20061;-55
2022/05/23 09:17:54;;;;;;;7.85;5.78;;;25.00;96.70;;;;;;5014117;28;20539;-55
2022/05/23 09:20:33;;;;;;;7.78;6.03;;;24.90;97.10;;;;;;5018158;28;20064;-56
2022/05/23 09:23:05;;;;;;;9.88;6.13;;;25.10;96.40;;;;;;5018316;28;20683;-51
2022/05/23 09:25:31;;;;;;;;;;;25.10;96.20;;;;;;5032863;28;20622;-52
2022/05/23 09:28:20;;;;;;;7.70;5.85;;;25.10;97.30;;;;;;5081360;28;19924;-55
2022/05/23 09:30:51;;;;;;;8.10;6.38;;;25.10;97.70;;;;;;5075734;28;20113;-49
2022/05/23 09:33:19;;;;;;;8.48;5.93;;;25.10;96.30;;;;;;5081546;28;20052;-57
2022/05/23 09:35:45;;;;;;;7.95;5.88;;;25.10;96.60;;;;;;5075103;28;21133;-57
2022/05/23 09:38:29;;;;;;;7.00;5.32;;;25.10;96.30;;;;;;5082599;28;20121;-53
2022/05/23 09:40:56;;;;;;;6.57;5.38;;;25.10;96.30;;;;;;5082255;28;20398;-53
2022/05/23 09:49:20;;;;;;;7.72;5.55;;;25.30;96.90;;;;;;5079742;28;20439;-56
2022/05/23 09:51:50;;;;;;;9.93;5.45;;;25.50;97.70;;;;;;5081366;28;20132;-55
2022/05/23 09:54:23;;;;;;;9.55;5.15;;;25.70;97.50;;;;;;5079649;28;20047;-56
2022/05/23 09:56:51;;;;;;;7.00;5.15;;;25.80;96.60;;;;;;5082084;28;20446;-55
2022/05/23 09:59:25;;;;;;;6.93;4.43;;;25.70;96.30;;;;;;5074418;28;20181;-52
2022/05/23 10:01:52;;;;;;;8.38;5.03;;;25.70;95.90;;;;;;5080625;28;20048;-53
2022/05/23 10:04:30;;;;;;;7.00;5.40;;;25.70;95.50;;;;;;5072567;28;20063;-56
2022/05/23 10:06:56;;;;;;;8.30;5.50;;;25.80;95.70;;;;;;5075380;28;20406;-56
2022/05/23 10:09:30;;;;;;;7.63;5.82;;;25.90;96.40;;;;;;5081130;28;20082;-54
2022/05/23 10:12:06;;;;;;;7.72;5.05;;;26.10;96.30;;;;;;5085152;28;20058;-55
2022/05/23 10:14:48;;;;;;;11.88;5.65;;;26.30;95.90;;;;;;5080953;28;20099;-60
2022/05/23 10:17:34;;;;;;;5.18;3.85;;;26.50;94.30;;;;;;5074257;28;20059;-55
2022/05/23 10:20:23;;;;;;;5.82;4.25;;;26.70;95.80;;;;;;5080907;28;20036;-56
2022/05/23 10:23:04;;;;;;;7.15;4.25;;;26.60;94.70;;;;;;5011420;28;20097;-56
2022/05/23 10:25:55;;;;;;;6.50;3.85;;;26.50;96.20;;;;;;5010965;28;20136;-56
2022/05/23 10:28:29;;;;;;;6.75;4.05;;;26.70;95.30;;;;;;5016998;28;20133;-51
2022/05/23 10:31:17;;;;;;;5.32;3.63;;;26.80;96.20;;;;;;5014473;28;20500;-55
2022/05/23 10:33:46;;;;;;;7.65;3.92;;;26.90;95.60;;;;;;4991388;28;20073;-54
2022/05/23 10:36:21;;;;;;;5.03;3.20;;;26.80;95.20;;;;;;5020870;28;20148;-53
2022/05/23 10:42:08;;;;;;;5.72;3.58;;;26.30;94.30;;;;;;5010306;28;20059;-56
2022/05/23 10:45:27;;;;;;;7.33;3.90;;;26.20;95.10;;;;;;5000439;28;20061;-56
2022/05/23 10:48:14;;;;;;;6.20;4.65;;;26.10;94.50;;;;;;4942795;28;20825;-55
2022/05/23 10:51:14;;;;;;;5.75;4.10;;;26.10;96.10;;;;;;4944009;28;20139;-55
2022/05/23 10:54:03;;;;;;;7.97;4.30;;;26.20;95.10;;;;;;4960696;28;20066;-55
2022/05/23 10:56:50;;;;;;;6.10;4.45;;;26.50;96.00;;;;;;4969607;28;20067;-52
2022/05/23 10:59:22;;;;;;;7.53;4.10;;;26.60;95.10;;;;;;4984101;28;20068;-56
2022/05/23 11:02:25;;;;;;;7.13;4.05;;;26.70;96.10;;;;;;5015129;28;20065;-54
2022/05/23 11:05:06;;;;;;;7.15;4.40;;;26.70;93.70;;;;;;5033115;28;20075;-56
2022/05/23 11:07:57;;;;;;;7.13;4.70;;;26.70;93.90;;;;;;5036524;28;20084;-56
2022/05/23 11:11:14;;;;;;;6.25;3.75;;;26.60;94.40;;;;;;5034069;28;20056;-55
2022/05/23 11:14:04;;;;;;;8.65;3.72;;;26.70;94.40;;;;;;4974073;28;20101;-53
2022/05/23 11:16:59;;;;;;;5.57;3.25;;;26.90;92.80;;;;;;4991521;28;20560;-56
2022/05/23 11:19:54;;;;;;;5.88;3.17;;;26.80;94.90;;;;;;4992451;28;20050;-57
2022/05/23 11:22:33;;;;;;;6.53;3.33;;;26.90;95.20;;;;;;5020422;28;20125;-50
2022/05/23 11:25:29;;;;;;;6.22;2.70;;;26.90;93.70;;;;;;5041637;28;20582;-57
2022/05/23 11:33:50;;;;;;;7.85;3.58;;;26.90;93.50;;;;;;5036577;28;20071;-57
2022/05/23 11:36:34;;;;;;;5.85;3.17;;;26.70;93.20;;;;;;5041998;28;20037;-56
2022/05/23 11:39:00;;;;;;;4.95;3.30;;;26.70;93.20;;;;;;5012417;28;20056;-55
2022/05/23 11:41:50;;;;;;;4.47;3.38;;;26.50;94.60;;;;;;5040325;28;20044;-57
2022/05/23 11:44:49;;;;;;;4.95;3.60;;;26.40;93.10;;;;;;5021635;28;20057;-55
2022/05/23 11:47:28;;;;;;;5.65;2.97;;;26.20;92.30;;;;;;5039349;28;20258;-55
2022/05/23 11:50:08;;;;;;;6.03;3.00;;;26.00;94.20;;;;;;5044990;28;20070;-56
2022/05/23 11:52:40;;;;;;;6.68;3.50;;;25.90;94.70;;;;;;5081258;28;20056;-52
2022/05/23 11:55:28;;;;;;;6.47;3.20;;;25.90;93.80;;;;;;5081513;28;20040;-55
2022/05/23 11:58:23;;;;;;;7.05;3.60;;;26.00;93.40;;;;;;5084114;28;20447;-54
2022/05/23 12:01:26;;;;;;;5.80;2.95;;;26.10;94.10;;;;;;5075233;28;20063;-53
2022/05/23 12:03:52;;;;;;;3.90;2.47;;;26.10;93.70;;;;;;5071735;28;20088;-54
2022/05/23 12:06:22;;;;;;;6.32;2.72;;;26.20;93.80;;;;;;5071405;28;20044;-55
2022/05/23 12:09:01;;;;;;;3.47;2.38;;;26.20;93.70;;;;;;5076937;28;20532;-55
2022/05/23 12:11:30;;;;;;;4.45;2.45;;;26.20;93.30;;;;;;5081107;28;20059;-56
2022/05/23 12:14:12;;;;;;;6.30;2.70;;;26.10;93.20;;;;;;5081259;28;20139;-57
2022/05/23 12:17:00;;;;;;;4.15;2.50;;;26.10;93.90;;;;;;5084102;28;20130;-51
2022/05/23 12:19:32;;;;;;;4.93;2.42;;;26.10;94.40;;;;;;5079629;28;20091;-56
2022/05/23 12:22:22;;;;;;;5.10;2.95;;;25.90;94.50;;;;;;5083696;28;20184;-52
2022/05/23 12:25:03;;;;;;;6.20;2.88;;;25.90;94.20;;;;;;5083036;28;20187;-51
2022/05/23 12:27:52;;;;;;;4.47;3.08;;;25.80;94.90;;;;;;5077486;28;21054;-54
2022/05/23 12:30:18;;;;;;;6.07;2.65;;;25.80;94.40;;;;;;5016524;28;20649;-56
2022/05/23 12:32:52;;;;;;;7.28;3.05;;;25.70;95.80;;;;;;5000553;28;20188;-56
2022/05/23 12:35:25;;;;;;;5.43;3.00;;;25.80;95.80;;;;;;5018337;28;20487;-55
2022/05/23 12:37:57;;;;;;;5.75;3.03;;;25.60;94.80;;;;;;5019854;28;20049;-51
2022/05/23 12:40:30;;;;;;;12.10;3.85;;;25.40;94.80;;;;;;5019606;28;20045;-55
2022/05/23 12:43:12;;;;;;;12.07;3.47;;;25.10;96.50;;;;;;5018311;28;20124;-46
2022/05/23 12:46:17;;;;;;;15.38;3.90;;;24.70;97.40;;;;;;5017973;28;20140;-49
2022/05/23 12:49:03;;;;;;;11.07;3.22;;;24.30;99.40;;;;;;4944717;28;20105;-55
2022/05/23 12:51:38;;;;;;;7.47;3.70;;;23.80;99.90;;;;;;4924778;29;20134;-53
2022/05/23 12:54:25;;;;;;;11.88;4.28;;;23.50;99.90;;;;;;4930217;29;20074;-56
2022/05/23 12:57:08;;;;;;;8.32;4.75;;;23.20;99.90;;;;;;4943245;28;20521;-52
2022/05/23 13:00:00;;;;;;;7.55;4.43;;;22.90;99.90;;;;;;4941588;29;20063;-54
2022/05/23 13:02:52;;;;;;;6.70;4.80;;;22.60;99.90;;;;;;4941574;28;20051;-54
2022/05/23 13:05:27;;;;;;;9.57;4.75;;;22.50;99.90;;;;;;4947226;28;20462;-51
2022/05/23 13:08:11;;;;;;;7.47;5.05;;;22.30;99.90;;;;;;4993004;28;20062;-53
2022/05/23 13:10:42;;;;;;;7.95;5.40;;;22.20;99.90;;;;;;5012892;28;20071;-55
2022/05/23 13:13:28;;;;;;;7.38;6.35;;;22.10;99.90;;;;;;5009405;28;20072;-55
2022/05/23 13:15:54;;;;;;;9.88;6.80;;;22.20;99.90;;;;;;5019879;28;20228;-52
2022/05/23 13:23:52;;;;;;;9.52;7.80;;;22.50;99.90;;;;;;5082598;28;20048;-57
2022/05/23 13:26:19;;;;;;;8.43;7.22;;;22.60;99.90;;;;;;5080948;28;20051;-56
2022/05/23 13:28:50;;;;;;;11.75;7.43;;;22.60;99.90;;;;;;5081709;28;20578;-55
2022/05/23 13:31:35;;;;;;;7.43;6.70;;;22.60;99.90;;;;;;5081532;28;20042;-52
2022/05/23 13:34:01;;;;;;;10.98;7.22;;;22.70;99.90;;;;;;5076735;28;20075;-54
2022/05/23 13:36:41;;;;;;;9.60;6.28;;;22.70;99.90;;;;;;5078286;28;20406;-54
2022/05/23 13:39:16;;;;;;;7.30;6.60;;;22.90;99.90;;;;;;5079724;28;20117;-50
2022/05/23 13:41:43;;;;;;;7.63;6.35;;;23.00;99.90;;;;;;5079744;28;20347;-54
2022/05/23 13:44:20;;;;;;;7.72;5.88;;;23.20;99.90;;;;;;5080476;28;20446;-54
2022/05/23 13:46:46;;;;;;;9.80;6.65;;;23.30;99.90;;;;;;5076354;28;20059;-53
2022/05/23 13:49:20;;;;;;;6.38;5.63;;;23.30;99.90;;;;;;5078928;28;20052;-56
2022/05/23 13:51:59;;;;;;;8.80;5.45;;;23.40;99.90;;;;;;5078844;28;20079;-56
2022/05/23 13:54:41;;;;;;;10.32;6.13;;;23.50;99.90;;;;;;5079879;28;20426;-51
2022/05/23 13:57:39;;;;;;;7.27;5.77;;;23.50;99.90;;;;;;5081705;28;20052;-56
2022/05/23 14:00:15;;;;;;;8.13;5.35;;;23.50;99.90;;;;;;5012310;28;20314;-55
2022/05/23 14:02:54;;;;;;;7.40;5.72;;;23.60;99.90;;;;;;4998572;28;20149;-55
2022/05/23 14:05:21;;;;;;;8.07;5.72;;;23.50;99.90;;;;;;5006171;28;20057;-53
2022/05/23 14:07:47;;;;;;;6.05;4.80;;;23.50;99.90;;;;;;5021807;28;20089;-53
2022/05/23 14:10:22;;;;;;;7.90;4.80;;;23.60;99.90;;;;;;5018415;28;20084;-54